createdAt,value
2023-03-06T00:00:22.635Z,1.50
2023-03-06T00:02:52.192Z,2.00
2023-03-06T00:05:23.327Z,2.10
2023-03-06T00:07:51.382Z,2.22
2023-03-06T00:10:22.791Z,1.52
2023-03-06T00:12:52.742Z,2.10
2023-03-06T00:15:20.953Z,1.85
2023-03-06T00:17:49.371Z,1.80
2023-03-06T00:20:17.758Z,1.40
2023-03-06T00:22:45.660Z,1.60
2023-03-06T00:25:19.477Z,1.77
2023-03-06T00:27:50.256Z,1.65
2023-03-06T00:30:21.032Z,2.60
2023-03-06T00:32:49.108Z,1.48
2023-03-06T00:35:19.835Z,2.08
2023-03-06T00:37:47.880Z,4.05
2023-03-06T00:40:18.224Z,2.55
2023-03-06T00:42:46.648Z,1.20
2023-03-06T00:45:16.022Z,1.52
2023-03-06T00:47:46.738Z,1.00
2023-03-06T00:50:14.783Z,2.60
2023-03-06T00:52:43.070Z,2.20
2023-03-06T00:55:13.298Z,1.30
2023-03-06T00:57:41.302Z,1.42
2023-03-06T01:00:10.810Z,2.65
2023-03-06T01:02:40.792Z,1.27
2023-03-06T01:05:14.171Z,1.45
2023-03-06T01:07:42.140Z,1.63
2023-03-06T01:10:13.422Z,1.90
2023-03-06T01:12:41.452Z,1.73
2023-03-06T01:15:10.681Z,1.75
2023-03-06T01:17:40.288Z,2.00
2023-03-06T01:20:09.288Z,3.70
2023-03-06T01:22:37.268Z,1.92
2023-03-06T01:25:05.683Z,1.98
2023-03-06T01:27:33.646Z,1.45
2023-03-06T01:30:02.012Z,1.63
2023-03-06T01:32:30.680Z,1.90
2023-03-06T01:35:00.246Z,1.77
2023-03-06T01:37:28.216Z,2.53
2023-03-06T01:39:56.387Z,1.73
2023-03-06T01:42:24.369Z,2.30
2023-03-06T01:45:05.759Z,2.15
2023-03-06T01:47:33.992Z,1.98
2023-03-06T01:50:05.542Z,2.10
2023-03-06T01:52:37.608Z,1.00
2023-03-06T01:55:10.059Z,1.67
2023-03-06T01:57:41.877Z,1.38
2023-03-06T02:00:16.091Z,1.40
2023-03-06T02:02:48.138Z,1.55
2023-03-06T02:05:17.595Z,2.25
2023-03-06T02:07:47.105Z,1.40
2023-03-06T02:10:17.938Z,1.27
2023-03-06T02:12:46.706Z,2.63
2023-03-06T02:15:18.485Z,1.23
2023-03-06T02:17:48.530Z,2.28
2023-03-06T02:20:23.887Z,1.40
2023-03-06T02:22:58.344Z,1.88
2023-03-06T02:25:37.290Z,2.08
2023-03-06T02:28:06.394Z,2.35
2023-03-06T02:30:34.730Z,2.08
2023-03-06T02:33:03.028Z,2.65
2023-03-06T02:35:33.558Z,2.30
2023-03-06T02:38:07.227Z,1.83
2023-03-06T02:40:36.737Z,2.08
2023-03-06T02:43:04.865Z,2.20
2023-03-06T02:45:36.926Z,2.20
2023-03-06T02:48:05.581Z,2.80
2023-03-06T02:50:34.069Z,2.65
2023-03-06T02:53:02.209Z,1.67
2023-03-06T02:55:30.136Z,2.08
2023-03-06T02:57:59.586Z,3.67
2023-03-06T03:00:28.265Z,2.38
2023-03-06T03:02:58.995Z,2.50
2023-03-06T03:05:29.512Z,2.15
2023-03-06T03:07:57.449Z,1.92
2023-03-06T03:10:26.429Z,2.70
2023-03-06T03:12:54.381Z,2.33
2023-03-06T03:15:23.693Z,1.77
2023-03-06T03:17:51.736Z,2.80
2023-03-06T03:20:21.317Z,2.72
2023-03-06T03:22:50.183Z,2.38
2023-03-06T03:25:18.847Z,4.50
2023-03-06T03:27:47.190Z,2.38
2023-03-06T03:30:16.493Z,1.83
2023-03-06T03:32:48.873Z,2.50
2023-03-06T03:35:17.020Z,2.25
2023-03-06T03:37:44.944Z,2.80
2023-03-06T03:40:14.137Z,2.60
2023-03-06T03:42:42.184Z,3.25
2023-03-06T03:45:10.912Z,2.28
2023-03-06T03:47:39.160Z,3.20
2023-03-06T03:50:10.591Z,2.10
2023-03-06T03:52:39.135Z,2.72
2023-03-06T03:55:08.223Z,1.95
2023-03-06T03:57:36.273Z,2.10
2023-03-06T04:00:08.030Z,2.22
2023-03-06T04:02:36.028Z,2.40
2023-03-06T04:05:05.272Z,2.78
2023-03-06T04:07:34.680Z,1.95
2023-03-06T04:10:02.653Z,3.22
2023-03-06T04:12:30.573Z,1.90
2023-03-06T04:14:59.144Z,4.50
2023-03-06T04:17:27.808Z,2.20
2023-03-06T04:19:55.802Z,2.60
2023-03-06T04:22:23.757Z,2.65
2023-03-06T04:24:53.148Z,2.05
2023-03-06T04:27:21.126Z,3.20
2023-03-06T04:29:49.191Z,5.43
2023-03-06T04:32:17.941Z,2.88
2023-03-06T04:34:47.119Z,2.15
2023-03-06T04:37:20.639Z,2.95
2023-03-06T04:39:48.655Z,3.97
2023-03-06T04:42:18.699Z,1.60
2023-03-06T04:44:47.156Z,1.95
2023-03-06T04:47:15.263Z,2.65
2023-03-06T04:49:43.852Z,2.63
2023-03-06T04:52:11.772Z,2.00
2023-03-06T04:54:39.754Z,2.28
2023-03-06T04:57:07.739Z,2.22
2023-03-06T04:59:39.175Z,2.53
2023-03-06T05:02:07.301Z,2.83
2023-03-06T05:04:35.308Z,3.13
2023-03-06T05:07:03.269Z,2.25
2023-03-06T05:09:31.304Z,1.80
2023-03-06T05:11:59.237Z,2.17
2023-03-06T05:14:29.903Z,1.70
2023-03-06T05:16:59.329Z,1.80
2023-03-06T05:19:28.798Z,2.45
2023-03-06T05:21:56.728Z,2.28
2023-03-06T05:24:24.716Z,4.15
2023-03-06T05:26:52.709Z,1.90
2023-03-06T05:29:20.787Z,2.10
2023-03-06T05:31:51.672Z,2.67
2023-03-06T05:34:21.134Z,4.22
2023-03-06T05:36:49.271Z,2.55
2023-03-06T05:39:17.241Z,2.45
2023-03-06T05:41:45.256Z,1.52
2023-03-06T05:44:13.203Z,2.17
2023-03-06T05:46:41.178Z,1.80
2023-03-06T05:49:09.417Z,2.85
2023-03-06T05:51:38.795Z,1.92
2023-03-06T05:54:06.765Z,1.70
2023-03-06T05:56:34.802Z,3.60
2023-03-06T05:59:02.713Z,1.77
2023-03-06T06:01:30.687Z,1.88
2023-03-06T06:03:58.665Z,1.63
2023-03-06T06:06:26.652Z,1.83
2023-03-06T06:08:55.996Z,1.45
2023-03-06T06:11:23.915Z,3.40
2023-03-06T06:13:51.996Z,2.70
2023-03-06T06:16:20.155Z,1.90
2023-03-06T06:18:48.112Z,1.40
2023-03-06T06:21:16.321Z,2.38
2023-03-06T06:23:44.399Z,1.60
2023-03-06T06:26:13.819Z,1.80
2023-03-06T06:28:41.734Z,1.58
2023-03-06T06:31:10.637Z,1.73
2023-03-06T06:33:41.174Z,2.33
2023-03-06T06:36:16.951Z,1.50
2023-03-06T06:38:45.127Z,2.15
2023-03-06T06:44:08.469Z,1.38
2023-03-06T06:47:20.700Z,1.38
2023-03-06T06:49:26.167Z,1.63
2023-03-06T06:51:54.126Z,1.50
2023-03-06T06:54:22.426Z,1.73
2023-03-06T06:56:51.887Z,1.27
2023-03-06T06:59:19.910Z,1.40
2023-03-06T07:01:48.086Z,2.58
2023-03-06T07:04:16.851Z,3.13
2023-03-06T07:06:44.903Z,1.30
2023-03-06T07:09:13.625Z,1.92
2023-03-06T07:11:42.271Z,1.30
2023-03-06T07:14:11.683Z,2.15
2023-03-06T07:16:39.845Z,2.05
2023-03-06T07:19:08.589Z,1.02
2023-03-06T07:21:36.647Z,2.45
2023-03-06T07:24:07.418Z,1.98
2023-03-06T07:26:35.410Z,1.75
2023-03-06T07:29:04.039Z,1.15
2023-03-06T07:31:33.514Z,3.38
2023-03-06T07:34:05.129Z,1.10
2023-03-06T07:36:34.140Z,1.42
2023-03-06T07:39:02.239Z,2.10
2023-03-06T07:41:30.320Z,1.42
2023-03-06T07:44:01.242Z,2.70
2023-03-06T07:46:29.250Z,1.10
2023-03-06T07:48:59.387Z,2.10
2023-03-06T07:51:27.431Z,1.70
2023-03-06T07:53:55.627Z,1.35
2023-03-06T07:56:23.632Z,1.05
2023-03-06T07:58:51.546Z,2.10
2023-03-06T08:01:23.577Z,0.80
2023-03-06T08:03:51.880Z,2.72
2023-03-06T08:06:26.068Z,1.50
2023-03-06T08:08:55.474Z,1.58
2023-03-06T08:11:25.490Z,1.10
2023-03-06T08:16:26.252Z,2.70
2023-03-06T08:18:54.289Z,0.90
2023-03-06T08:21:25.815Z,1.52
2023-03-06T08:23:54.627Z,0.90
2023-03-06T08:26:25.083Z,1.25
2023-03-06T08:28:53.871Z,3.00
2023-03-06T08:31:31.209Z,0.93
2023-03-06T08:34:02.697Z,1.13
2023-03-06T08:36:32.118Z,0.93
2023-03-06T08:39:00.470Z,0.90
2023-03-06T08:41:28.761Z,0.98
2023-03-06T08:43:57.143Z,0.73
2023-03-06T08:46:27.129Z,1.10
2023-03-06T08:48:58.315Z,1.25
2023-03-06T08:51:28.118Z,1.67
2023-03-06T08:53:58.150Z,0.60
2023-03-06T08:56:28.356Z,3.30
2023-03-06T08:58:58.238Z,0.82
2023-03-06T09:01:28.436Z,0.90
2023-03-06T09:03:57.822Z,0.80
2023-03-06T09:06:31.735Z,1.23
2023-03-06T09:09:01.617Z,1.55
2023-03-06T09:11:33.066Z,0.90
2023-03-06T09:14:01.094Z,0.52
2023-03-06T09:16:29.511Z,1.85
2023-03-06T09:18:58.770Z,0.60
2023-03-06T09:21:28.298Z,0.70
2023-03-06T09:23:56.382Z,0.50
2023-03-06T09:26:39.603Z,0.73
2023-03-06T09:29:12.651Z,0.90
2023-03-06T09:31:40.714Z,0.50
2023-03-06T09:34:08.729Z,1.00
2023-03-06T09:36:53.227Z,1.08
2023-03-06T09:39:23.119Z,0.50
2023-03-06T09:41:53.439Z,0.40
2023-03-06T09:44:27.604Z,0.60
2023-03-06T09:47:12.124Z,0.88
2023-03-06T09:50:01.415Z,0.50
2023-03-06T09:52:37.531Z,0.90
2023-03-06T09:55:13.479Z,0.40
2023-03-06T09:57:52.396Z,0.30
2023-03-06T10:00:26.658Z,1.38
2023-03-06T10:03:01.327Z,1.40
2023-03-06T10:05:36.872Z,0.50
2023-03-06T10:08:12.464Z,1.63
2023-03-06T10:10:45.430Z,0.43
2023-03-06T10:13:20.510Z,0.50
2023-03-06T10:15:50.581Z,0.30
2023-03-06T10:18:19.213Z,0.47
2023-03-06T10:20:57.492Z,0.80
2023-03-06T10:23:43.487Z,0.65
2023-03-06T10:26:18.190Z,0.82
2023-03-06T10:28:57.913Z,1.75
2023-03-06T10:31:27.750Z,0.30
2023-03-06T10:33:57.063Z,1.55
2023-03-06T10:36:27.666Z,1.40
2023-03-06T10:38:57.997Z,0.55
2023-03-06T10:41:29.814Z,0.30
2023-03-06T10:44:25.118Z,0.40
2023-03-06T10:46:54.875Z,0.30
2023-03-06T10:49:31.712Z,1.10
2023-03-06T10:52:06.717Z,0.55
2023-03-06T10:54:36.674Z,0.93
2023-03-06T10:57:26.069Z,0.40
2023-03-06T10:59:57.616Z,1.08
2023-03-06T11:02:29.634Z,0.47
2023-03-06T11:05:02.153Z,1.30
2023-03-06T11:07:31.202Z,0.30
2023-03-06T11:10:07.638Z,0.30
2023-03-06T11:12:37.229Z,0.30
2023-03-06T11:15:18.740Z,0.40
2023-03-06T11:17:53.734Z,1.47
2023-03-06T11:20:24.926Z,0.30
2023-03-06T11:22:57.196Z,0.47
2023-03-06T11:25:31.017Z,1.45
2023-03-06T11:28:03.937Z,1.00
2023-03-06T11:30:40.916Z,0.30
2023-03-06T11:33:18.858Z,1.17
2023-03-06T11:36:00.748Z,0.63
2023-03-06T11:38:39.998Z,0.57
2023-03-06T11:41:19.038Z,0.45
2023-03-06T11:43:57.899Z,0.40
2023-03-06T11:46:35.416Z,0.40
2023-03-06T11:49:13.296Z,0.68
2023-03-06T11:51:44.263Z,0.80
2023-03-06T11:54:15.297Z,0.40
2023-03-06T11:56:51.040Z,0.35
2023-03-06T11:59:43.120Z,0.30
2023-03-06T12:02:26.559Z,0.52
2023-03-06T12:05:02.596Z,4.68
2023-03-06T12:07:34.139Z,0.40
2023-03-06T12:10:14.343Z,1.25
2023-03-06T12:12:59.834Z,2.85
2023-03-06T12:15:41.714Z,0.30
2023-03-06T12:18:33.460Z,0.90
2023-03-06T12:21:08.184Z,0.30
2023-03-06T12:24:05.160Z,0.30
2023-03-06T12:26:49.626Z,0.30
2023-03-06T12:29:33.526Z,0.30
2023-03-06T12:32:15.294Z,0.40
2023-03-06T12:35:07.089Z,0.50
2023-03-06T12:37:49.687Z,0.90
2023-03-06T12:40:41.382Z,2.10
2023-03-06T12:43:39.946Z,0.32
2023-03-06T12:46:14.383Z,0.40
2023-03-06T12:48:44.673Z,0.60
2023-03-06T12:51:19.096Z,0.93
2023-03-06T12:53:48.187Z,4.47
2023-03-06T12:56:18.630Z,1.15
2023-03-06T12:58:50.136Z,3.08
2023-03-06T13:01:49.419Z,5.53
2023-03-06T13:04:50.393Z,9.00
2023-03-06T13:07:37.829Z,6.60
2023-03-06T13:10:12.099Z,5.65
2023-03-06T13:12:50.443Z,4.88
2023-03-06T13:15:40.441Z,6.75
2023-03-06T13:18:57.586Z,3.95
2023-03-06T13:22:01.691Z,5.70
2023-03-06T13:24:37.194Z,4.68
2023-03-06T13:27:08.091Z,5.50
2023-03-06T13:30:06.812Z,5.95
2023-03-06T13:32:37.739Z,2.92
2023-03-06T13:35:48.483Z,6.70
2023-03-06T13:38:51.794Z,6.93
2023-03-06T13:41:58.493Z,12.70
2023-03-06T13:44:48.824Z,4.20
2023-03-06T13:47:35.644Z,3.72
2023-03-06T13:50:37.360Z,3.20
2023-03-06T13:53:28.921Z,4.70
2023-03-06T13:56:10.757Z,4.88
2023-03-06T13:58:58.634Z,6.22
2023-03-06T14:01:44.250Z,5.13
2023-03-06T14:04:42.376Z,3.78
2023-03-06T14:07:25.654Z,3.67
2023-03-06T14:10:03.008Z,1.77
2023-03-06T14:12:35.145Z,5.18
2023-03-06T14:15:13.467Z,3.22
2023-03-06T14:17:58.218Z,3.42
2023-03-06T14:20:34.353Z,3.05
2023-03-06T14:23:24.667Z,1.85
2023-03-06T14:25:58.016Z,2.90
2023-03-06T14:28:28.302Z,2.88
2023-03-06T14:30:59.585Z,4.30
2023-03-06T14:33:32.363Z,3.78
2023-03-06T14:36:03.705Z,3.53
2023-03-06T14:38:36.302Z,2.00
2023-03-06T14:41:05.901Z,2.65
2023-03-06T14:43:33.930Z,4.07
2023-03-06T14:46:05.150Z,6.55
2023-03-06T14:48:42.452Z,4.45
2023-03-06T14:51:17.602Z,3.00
2023-03-06T14:53:50.184Z,2.92
2023-03-06T14:56:20.462Z,4.75
2023-03-06T14:58:56.304Z,4.35
2023-03-06T15:01:31.033Z,2.53
2023-03-06T15:04:00.700Z,1.92
2023-03-06T15:06:33.231Z,2.25
2023-03-06T15:09:07.839Z,3.15
2023-03-06T15:12:08.029Z,5.32
2023-03-06T15:14:37.980Z,1.63
2023-03-06T15:17:29.936Z,3.08
2023-03-06T15:20:01.731Z,2.05
2023-03-06T15:22:34.243Z,1.75
2023-03-06T15:25:19.952Z,3.10
2023-03-06T15:27:52.752Z,3.15
2023-03-06T15:30:32.496Z,1.85
2023-03-06T15:33:21.045Z,3.00
2023-03-06T15:35:54.954Z,3.33
2023-03-06T15:38:25.850Z,4.13
2023-03-06T15:40:58.893Z,3.45
2023-03-06T15:43:27.267Z,2.30
2023-03-06T15:46:00.103Z,3.53
2023-03-06T15:48:29.975Z,4.07
2023-03-06T15:50:58.151Z,2.08
2023-03-06T15:53:26.400Z,2.08
2023-03-06T15:55:54.556Z,2.13
2023-03-06T15:58:24.936Z,1.40
2023-03-06T16:00:53.456Z,2.33
2023-03-06T16:03:21.525Z,3.60
2023-03-06T16:05:50.915Z,1.88
2023-03-06T16:08:19.104Z,1.25
2023-03-06T16:10:47.737Z,2.97
2023-03-06T16:13:19.983Z,2.25
2023-03-06T16:18:20.036Z,1.58
2023-03-06T16:20:48.246Z,3.00
2023-03-06T16:23:17.528Z,3.38
2023-03-06T16:25:50.307Z,4.18
2023-03-06T16:28:21.385Z,4.50
2023-03-06T16:30:49.459Z,1.83
2023-03-06T16:33:17.476Z,3.28
2023-03-06T16:35:47.255Z,3.80
2023-03-06T16:38:16.267Z,10.07
2023-03-06T16:40:45.617Z,14.55
2023-03-06T16:43:16.663Z,8.68
2023-03-06T16:45:44.896Z,8.32
2023-03-06T16:48:17.464Z,5.38
2023-03-06T16:50:45.709Z,6.72
2023-03-06T16:53:13.973Z,6.47
2023-03-06T16:55:42.185Z,7.45
2023-03-06T16:58:11.494Z,6.43
2023-03-06T17:00:42.730Z,5.28
2023-03-06T17:03:10.764Z,7.97
2023-03-06T17:05:39.339Z,3.97
2023-03-06T17:08:07.345Z,4.55
2023-03-06T17:10:35.428Z,6.72
2023-03-06T17:13:03.456Z,8.18
2023-03-06T17:15:32.801Z,5.22
2023-03-06T17:18:00.799Z,19.55
2023-03-06T17:20:28.745Z,8.10
2023-03-06T17:22:56.673Z,5.47
2023-03-06T17:25:24.852Z,7.25
2023-03-06T17:27:52.835Z,7.40
2023-03-06T17:30:20.868Z,7.03
2023-03-06T17:32:50.140Z,7.50
2023-03-06T17:35:18.340Z,5.65
2023-03-06T17:37:46.288Z,8.35
2023-03-06T17:40:15.661Z,7.55
2023-03-06T17:42:43.587Z,8.65
2023-03-06T17:45:12.561Z,3.85
2023-03-06T17:47:40.538Z,5.40
2023-03-06T17:50:11.501Z,6.85
2023-03-06T17:52:42.419Z,5.00
2023-03-06T17:55:11.020Z,5.57
2023-03-06T17:57:38.980Z,6.22
2023-03-06T18:00:08.459Z,6.15
2023-03-06T18:02:36.772Z,5.65
2023-03-06T18:05:05.308Z,6.15
2023-03-06T18:07:34.660Z,5.40
2023-03-06T18:10:02.688Z,4.53
2023-03-06T18:12:30.619Z,4.78
2023-03-06T18:14:58.807Z,7.13
2023-03-06T18:17:29.049Z,5.45
2023-03-06T18:19:57.509Z,5.82
2023-03-06T18:22:25.549Z,5.82
2023-03-06T18:24:54.840Z,6.43
2023-03-06T18:27:23.112Z,4.97
2023-03-06T18:29:52.244Z,6.38
2023-03-06T18:32:20.233Z,5.22
2023-03-06T18:34:50.581Z,5.00
2023-03-06T18:37:18.859Z,5.18
2023-03-06T18:39:46.878Z,6.35
2023-03-06T18:42:16.261Z,5.72
2023-03-06T18:44:48.238Z,4.85
2023-03-06T18:47:16.419Z,6.82
2023-03-06T18:49:46.039Z,6.88
2023-03-06T18:52:14.042Z,9.80
2023-03-06T18:54:42.266Z,7.50
2023-03-06T18:57:13.220Z,8.10
2023-03-06T18:59:42.527Z,6.13
2023-03-06T19:02:11.366Z,6.07
2023-03-06T19:04:39.493Z,8.32
2023-03-06T19:07:07.990Z,5.60
2023-03-06T19:09:39.056Z,6.28
2023-03-06T19:12:07.665Z,7.15
2023-03-06T19:14:36.463Z,7.68
2023-03-06T19:17:05.951Z,5.53
2023-03-06T19:19:33.964Z,6.90
2023-03-06T19:22:02.099Z,7.20
2023-03-06T19:24:30.113Z,7.30
2023-03-06T19:26:58.098Z,5.15
2023-03-06T19:29:26.195Z,5.63
2023-03-06T19:31:57.146Z,5.88
2023-03-06T19:34:26.869Z,4.47
2023-03-06T19:36:57.801Z,9.23
2023-03-06T19:39:25.778Z,4.95
2023-03-06T19:41:53.821Z,7.55
2023-03-06T19:44:24.418Z,5.88
2023-03-06T19:46:55.154Z,6.85
2023-03-06T19:49:23.128Z,6.82
2023-03-06T19:51:52.464Z,5.00
2023-03-06T19:54:23.386Z,5.72
2023-03-06T19:56:51.494Z,5.38
2023-03-06T19:59:19.579Z,6.88
2023-03-06T20:01:47.582Z,6.75
2023-03-06T20:04:16.945Z,5.85
2023-03-06T20:06:46.714Z,5.78
2023-03-06T20:09:16.083Z,5.70
2023-03-06T20:11:44.104Z,5.00
2023-03-06T20:14:13.856Z,7.55
2023-03-06T20:16:42.247Z,6.80
2023-03-06T20:19:12.386Z,4.72
2023-03-06T20:21:40.434Z,4.65
2023-03-06T20:24:09.980Z,6.78
2023-03-06T20:26:42.330Z,5.10
2023-03-06T20:29:10.476Z,7.03
2023-03-06T20:31:38.440Z,5.90
2023-03-06T20:34:06.519Z,6.03
2023-03-06T20:36:37.043Z,4.43
2023-03-06T20:39:08.315Z,4.45
2023-03-06T20:41:36.615Z,6.43
2023-03-06T20:44:08.002Z,5.15
2023-03-06T20:46:36.081Z,4.82
2023-03-06T20:49:04.886Z,5.53
2023-03-06T20:51:36.080Z,4.80
2023-03-06T20:54:04.853Z,5.25
2023-03-06T20:56:34.678Z,4.75
2023-03-06T20:59:03.168Z,5.38
2023-03-06T21:01:34.132Z,5.43
2023-03-06T21:04:04.266Z,6.38
2023-03-06T21:06:32.814Z,5.30
2023-03-06T21:09:01.951Z,5.50
2023-03-06T21:11:30.065Z,6.05
2023-03-06T21:13:58.476Z,4.85
2023-03-06T21:16:27.983Z,4.80
2023-03-06T21:18:58.725Z,5.55
2023-03-06T21:21:29.361Z,3.55
2023-03-06T21:23:57.577Z,3.85
2023-03-06T21:26:29.274Z,4.90
2023-03-06T21:28:59.190Z,4.72
2023-03-06T21:31:28.441Z,4.55
2023-03-06T21:33:58.804Z,4.65
2023-03-06T21:36:27.546Z,4.38
2023-03-06T21:38:55.680Z,3.92
2023-03-06T21:41:28.491Z,5.20
2023-03-06T21:43:56.969Z,4.13
2023-03-06T21:46:25.646Z,4.00
2023-03-06T21:48:54.075Z,4.13
2023-03-06T21:51:24.777Z,4.03
2023-03-06T21:53:54.448Z,4.43
2023-03-06T21:56:25.349Z,3.78
2023-03-06T21:58:53.850Z,3.60
2023-03-06T22:01:26.415Z,3.83
2023-03-06T22:03:54.761Z,4.10
2023-03-06T22:06:26.673Z,5.15
2023-03-06T22:08:56.633Z,3.85
2023-03-06T22:11:26.293Z,3.35
2023-03-06T22:13:54.667Z,4.60
2023-03-06T22:16:22.770Z,3.50
2023-03-06T22:18:52.333Z,3.65
2023-03-06T22:21:22.587Z,3.75
2023-03-06T22:23:53.279Z,3.53
2023-03-06T22:26:21.944Z,5.20
2023-03-06T22:28:49.896Z,3.35
2023-03-06T22:31:19.970Z,3.80
2023-03-06T22:33:48.146Z,3.55
2023-03-06T22:36:16.817Z,4.22
2023-03-06T22:38:46.910Z,3.97
2023-03-06T22:41:20.078Z,3.53
2023-03-06T22:43:49.318Z,3.38
2023-03-06T22:46:18.900Z,3.42
2023-03-06T22:48:47.064Z,3.00
2023-03-06T22:51:17.416Z,5.03
2023-03-06T22:53:45.845Z,3.63
2023-03-06T22:56:15.208Z,4.25
2023-03-06T22:58:45.161Z,3.90
2023-03-06T23:01:14.895Z,4.20
2023-03-06T23:03:44.806Z,3.00
2023-03-06T23:06:16.155Z,2.83
2023-03-06T23:08:45.593Z,3.33
2023-03-06T23:11:15.975Z,3.85
2023-03-06T23:13:48.523Z,3.38
2023-03-06T23:16:16.561Z,3.35
2023-03-06T23:18:44.878Z,2.60
2023-03-06T23:21:15.946Z,3.05
2023-03-06T23:23:44.331Z,3.38
2023-03-06T23:26:15.140Z,3.13
2023-03-06T23:28:43.239Z,3.22
2023-03-06T23:31:17.537Z,4.13
2023-03-06T23:33:45.818Z,3.53
2023-03-06T23:36:15.567Z,3.42
2023-03-06T23:38:43.884Z,2.80
2023-03-06T23:41:14.131Z,2.60
2023-03-06T23:43:42.518Z,3.80
2023-03-06T23:46:10.762Z,2.67
2023-03-06T23:48:41.908Z,4.00
2023-03-06T23:51:13.081Z,2.47
2023-03-06T23:53:43.993Z,2.15
2023-03-06T23:56:12.955Z,2.33
2023-03-06T23:58:41.285Z,4.47
